createdAt,value
2022-12-27T00:00:14.516Z,3.70
2022-12-27T00:02:42.207Z,3.60
2022-12-27T00:05:10.264Z,3.60
2022-12-27T00:07:37.604Z,3.60
2022-12-27T00:10:05.711Z,3.60
2022-12-27T00:12:32.599Z,3.60
2022-12-27T00:14:59.452Z,3.60
2022-12-27T00:17:26.426Z,3.60
2022-12-27T00:19:53.332Z,3.50
2022-12-27T00:22:20.476Z,3.50
2022-12-27T00:24:48.020Z,3.50
2022-12-27T00:27:14.959Z,3.40
2022-12-27T00:29:41.793Z,3.40
2022-12-27T00:32:08.613Z,3.40
2022-12-27T00:34:35.974Z,3.40
2022-12-27T00:37:02.794Z,3.50
2022-12-27T00:39:29.605Z,3.40
2022-12-27T00:41:56.473Z,3.40
2022-12-27T00:44:23.300Z,3.50
2022-12-27T00:46:50.207Z,3.50
2022-12-27T00:49:17.049Z,3.50
2022-12-27T00:51:43.878Z,3.50
2022-12-27T00:54:10.780Z,3.50
2022-12-27T00:56:37.959Z,3.50
2022-12-27T00:59:05.595Z,3.60
2022-12-27T01:01:35.643Z,3.60
2022-12-27T01:04:03.358Z,3.70
2022-12-27T01:06:32.277Z,3.70
2022-12-27T01:09:01.049Z,3.80
2022-12-27T01:11:29.350Z,3.80
2022-12-27T01:13:58.283Z,3.70
2022-12-27T01:16:26.742Z,3.70
2022-12-27T01:18:54.369Z,3.70
2022-12-27T01:21:23.510Z,3.60
2022-12-27T01:23:50.612Z,3.60
2022-12-27T01:26:20.404Z,3.60
2022-12-27T01:28:48.495Z,3.60
2022-12-27T01:31:18.620Z,3.70
2022-12-27T01:33:45.868Z,3.60
2022-12-27T01:36:23.490Z,3.60
2022-12-27T01:38:50.680Z,3.60
2022-12-27T01:41:45.874Z,3.60
2022-12-27T01:44:37.772Z,3.60
2022-12-27T01:47:33.711Z,3.60
2022-12-27T01:50:36.815Z,3.60
2022-12-27T01:53:17.654Z,3.60
2022-12-27T01:56:04.383Z,3.70
2022-12-27T01:58:49.183Z,3.80
2022-12-27T02:01:32.591Z,3.70
2022-12-27T02:04:04.016Z,3.70
2022-12-27T02:06:32.777Z,3.70
2022-12-27T02:09:17.915Z,3.80
2022-12-27T02:11:51.877Z,3.70
2022-12-27T02:14:28.661Z,3.70
2022-12-27T02:16:58.314Z,3.70
2022-12-27T02:19:41.687Z,3.70
2022-12-27T02:23:04.826Z,3.70
2022-12-27T02:25:46.743Z,3.70
2022-12-27T02:28:44.121Z,3.70
2022-12-27T02:31:26.037Z,3.60
2022-12-27T02:33:54.863Z,3.70
2022-12-27T02:36:29.747Z,3.70
2022-12-27T02:38:59.607Z,3.70
2022-12-27T02:41:45.942Z,3.80
2022-12-27T02:44:35.817Z,3.70
2022-12-27T02:47:21.490Z,3.70
2022-12-27T02:50:06.892Z,3.60
2022-12-27T02:53:02.007Z,3.70
2022-12-27T02:55:36.374Z,3.70
2022-12-27T02:58:06.259Z,3.80
2022-12-27T03:01:09.280Z,3.80
2022-12-27T03:03:45.337Z,3.80
2022-12-27T03:06:33.905Z,3.90
2022-12-27T03:09:39.162Z,3.90
2022-12-27T03:12:46.112Z,3.80
2022-12-27T03:15:53.592Z,3.70
2022-12-27T03:18:43.005Z,3.70
2022-12-27T03:21:29.519Z,3.70
2022-12-27T03:24:17.763Z,3.70
2022-12-27T03:26:49.765Z,3.60
2022-12-27T03:29:38.616Z,3.60
2022-12-27T03:32:28.501Z,3.70
2022-12-27T03:35:15.771Z,3.60
2022-12-27T03:38:04.260Z,3.60
2022-12-27T03:41:07.239Z,3.70
2022-12-27T03:43:36.135Z,3.70
2022-12-27T03:46:27.751Z,3.80
2022-12-27T03:49:28.290Z,3.90
2022-12-27T03:52:11.431Z,3.90
2022-12-27T03:54:40.898Z,3.90
2022-12-27T03:57:14.144Z,3.90
2022-12-27T03:59:41.002Z,4.00
2022-12-27T04:02:09.116Z,4.00
2022-12-27T04:04:36.878Z,4.10
2022-12-27T04:07:04.836Z,4.10
2022-12-27T04:09:50.357Z,4.20
2022-12-27T04:12:35.929Z,4.20
2022-12-27T04:15:21.247Z,4.20
2022-12-27T04:18:06.600Z,4.20
2022-12-27T04:20:52.184Z,4.20
2022-12-27T04:23:37.561Z,4.10
2022-12-27T04:26:22.851Z,4.10
2022-12-27T04:29:08.081Z,4.10
2022-12-27T04:31:53.821Z,4.00
2022-12-27T04:34:39.098Z,3.90
2022-12-27T04:37:06.928Z,3.90
2022-12-27T04:39:33.763Z,3.90
2022-12-27T04:42:19.198Z,4.00
2022-12-27T04:45:06.857Z,4.10
2022-12-27T04:47:54.426Z,4.10
2022-12-27T04:50:48.395Z,4.20
2022-12-27T04:53:36.263Z,4.20
2022-12-27T04:56:03.787Z,4.30
2022-12-27T04:58:30.807Z,4.20
2022-12-27T05:01:21.276Z,4.20
2022-12-27T05:03:50.646Z,4.20
2022-12-27T05:06:18.749Z,4.20
2022-12-27T05:09:04.147Z,4.20
2022-12-27T05:11:49.342Z,4.20
2022-12-27T05:14:16.367Z,4.10
2022-12-27T05:16:44.206Z,4.00
2022-12-27T05:19:13.519Z,4.00
2022-12-27T05:22:01.304Z,4.00
2022-12-27T05:24:46.807Z,4.00
2022-12-27T05:27:13.774Z,4.10
2022-12-27T05:29:40.605Z,4.10
2022-12-27T05:32:12.809Z,4.10
2022-12-27T05:34:40.280Z,4.10
2022-12-27T05:37:07.704Z,4.10
2022-12-27T05:39:34.538Z,4.10
2022-12-27T05:42:01.411Z,4.10
2022-12-27T05:44:28.221Z,4.10
2022-12-27T05:46:55.897Z,4.10
2022-12-27T05:49:23.095Z,4.20
2022-12-27T05:51:50.001Z,4.20
2022-12-27T05:54:17.052Z,4.20
2022-12-27T05:56:43.928Z,4.20
2022-12-27T05:59:10.776Z,4.20
2022-12-27T06:01:37.625Z,4.30
2022-12-27T06:04:04.695Z,4.30
2022-12-27T06:06:31.517Z,4.30
2022-12-27T06:08:58.352Z,4.30
2022-12-27T06:11:25.288Z,4.40
2022-12-27T06:13:54.168Z,4.30
2022-12-27T06:16:22.232Z,4.30
2022-12-27T06:18:49.799Z,4.30
2022-12-27T06:21:19.999Z,4.30
2022-12-27T06:23:47.637Z,4.30
2022-12-27T06:26:20.457Z,4.20
2022-12-27T06:28:49.561Z,4.30
2022-12-27T06:31:18.034Z,4.20
2022-12-27T06:33:46.273Z,4.20
2022-12-27T06:36:15.839Z,4.30
2022-12-27T06:38:42.744Z,4.30
2022-12-27T06:41:11.895Z,4.30
2022-12-27T06:43:39.280Z,4.40
2022-12-27T06:46:15.219Z,4.30
2022-12-27T06:48:46.627Z,4.30
2022-12-27T06:51:14.672Z,4.40
2022-12-27T06:53:41.753Z,4.40
2022-12-27T06:56:14.032Z,4.40
2022-12-27T06:58:40.875Z,4.40
2022-12-27T07:01:12.787Z,4.40
2022-12-27T07:03:39.918Z,4.40
2022-12-27T07:06:08.895Z,4.40
2022-12-27T07:08:36.558Z,4.40
2022-12-27T07:11:09.768Z,4.40
2022-12-27T07:13:38.727Z,4.40
2022-12-27T07:16:09.700Z,4.50
2022-12-27T07:18:36.806Z,4.50
2022-12-27T07:21:07.113Z,4.50
2022-12-27T07:23:34.891Z,4.50
2022-12-27T07:26:06.527Z,4.50
2022-12-27T07:28:33.766Z,4.50
2022-12-27T07:31:05.569Z,4.60
2022-12-27T07:33:32.437Z,4.50
2022-12-27T07:36:00.806Z,4.60
2022-12-27T07:38:28.030Z,4.60
2022-12-27T07:40:55.121Z,4.60
2022-12-27T07:43:22.078Z,4.60
2022-12-27T07:45:48.955Z,4.70
2022-12-27T07:48:15.831Z,4.60
2022-12-27T07:50:42.761Z,4.60
2022-12-27T07:53:09.599Z,4.50
2022-12-27T07:55:36.519Z,4.60
2022-12-27T07:58:03.414Z,4.50
2022-12-27T08:00:30.346Z,4.50
2022-12-27T08:02:57.279Z,4.60
2022-12-27T08:05:27.618Z,4.50
2022-12-27T08:07:55.069Z,4.50
2022-12-27T08:10:21.914Z,4.40
2022-12-27T08:12:48.817Z,4.40
2022-12-27T08:15:15.804Z,4.40
2022-12-27T08:17:42.882Z,4.40
2022-12-27T08:20:15.857Z,4.40
2022-12-27T08:22:42.698Z,4.40
2022-12-27T08:25:10.083Z,4.40
2022-12-27T08:27:36.928Z,4.50
2022-12-27T08:30:04.231Z,4.60
2022-12-27T08:32:31.274Z,4.70
2022-12-27T08:35:17.927Z,4.80
2022-12-27T08:37:45.015Z,4.80
2022-12-27T08:40:12.002Z,4.80
2022-12-27T08:42:38.840Z,4.70
2022-12-27T08:45:06.179Z,4.70
2022-12-27T08:47:33.035Z,4.60
2022-12-27T08:49:59.844Z,4.60
2022-12-27T08:52:26.762Z,4.60
2022-12-27T08:54:53.631Z,4.60
2022-12-27T08:57:20.493Z,4.60
2022-12-27T08:59:47.401Z,4.70
2022-12-27T09:02:14.706Z,4.70
2022-12-27T09:04:41.693Z,4.70
2022-12-27T09:07:08.559Z,4.70
2022-12-27T09:09:35.401Z,4.70
2022-12-27T09:12:04.042Z,4.80
2022-12-27T09:14:35.249Z,4.90
2022-12-27T09:17:02.189Z,4.90
2022-12-27T09:19:28.984Z,4.90
2022-12-27T09:21:55.866Z,5.00
2022-12-27T09:24:22.837Z,5.00
2022-12-27T09:26:49.770Z,5.10
2022-12-27T09:29:16.667Z,5.10
2022-12-27T09:31:43.571Z,5.10
2022-12-27T09:34:11.352Z,5.10
2022-12-27T09:36:40.099Z,5.20
2022-12-27T09:39:07.068Z,5.20
2022-12-27T09:45:10.989Z,5.20
2022-12-27T09:47:40.614Z,5.20
2022-12-27T09:50:15.381Z,5.30
2022-12-27T09:52:59.345Z,5.20
2022-12-27T09:55:34.422Z,5.20
2022-12-27T09:58:28.308Z,5.20
2022-12-27T10:00:55.131Z,5.20
2022-12-27T10:03:25.893Z,5.30
2022-12-27T10:06:22.267Z,5.40
2022-12-27T10:08:55.024Z,5.40
2022-12-27T10:12:06.625Z,5.40
2022-12-27T10:15:24.866Z,5.40
2022-12-27T10:18:09.455Z,5.50
2022-12-27T10:20:58.891Z,5.60
2022-12-27T10:23:29.501Z,5.60
2022-12-27T10:26:07.679Z,5.50
2022-12-27T10:28:39.948Z,5.50
2022-12-27T10:31:12.151Z,5.60
2022-12-27T10:33:40.229Z,5.60
2022-12-27T10:36:11.467Z,5.70
2022-12-27T10:38:38.556Z,5.70
2022-12-27T10:41:39.249Z,5.80
2022-12-27T10:44:11.968Z,5.80
2022-12-27T10:46:41.161Z,5.80
2022-12-27T10:49:24.094Z,5.80
2022-12-27T10:51:55.361Z,5.80
2022-12-27T10:54:28.212Z,5.70
2022-12-27T10:56:56.611Z,5.70
2022-12-27T10:59:28.986Z,5.60
2022-12-27T11:02:02.606Z,5.70
2022-12-27T11:04:31.199Z,5.80
2022-12-27T11:07:03.779Z,5.90
2022-12-27T11:09:34.092Z,5.80
2022-12-27T11:12:23.880Z,5.80
2022-12-27T11:15:04.301Z,5.70
2022-12-27T11:17:50.291Z,5.90
2022-12-27T11:20:32.380Z,6.10
2022-12-27T11:23:04.241Z,6.00
2022-12-27T11:25:32.189Z,6.00
2022-12-27T11:28:06.503Z,6.30
2022-12-27T11:30:40.113Z,6.40
2022-12-27T11:33:32.151Z,6.50
2022-12-27T11:36:00.772Z,6.60
2022-12-27T11:38:30.733Z,6.60
2022-12-27T11:41:34.268Z,6.40
2022-12-27T11:44:10.316Z,6.30
2022-12-27T11:46:58.591Z,6.30
2022-12-27T11:49:36.310Z,6.00
2022-12-27T11:52:11.813Z,6.00
2022-12-27T11:55:10.576Z,5.90
2022-12-27T11:58:00.522Z,5.90
2022-12-27T12:00:37.813Z,6.20
2022-12-27T12:03:49.541Z,6.20
2022-12-27T12:06:16.381Z,6.10
2022-12-27T12:09:01.784Z,6.20
2022-12-27T12:11:40.477Z,6.20
2022-12-27T12:14:43.867Z,6.00
2022-12-27T12:17:36.322Z,6.00
2022-12-27T12:20:25.315Z,6.00
2022-12-27T12:23:36.588Z,5.90
2022-12-27T12:26:21.696Z,5.90
2022-12-27T12:29:07.458Z,6.00
2022-12-27T12:31:43.603Z,6.00
2022-12-27T12:34:14.787Z,5.90
2022-12-27T12:37:07.292Z,5.90
2022-12-27T12:40:04.951Z,5.90
2022-12-27T12:42:37.831Z,5.90
2022-12-27T12:45:26.765Z,5.90
2022-12-27T12:48:01.785Z,6.00
2022-12-27T12:50:33.457Z,6.00
2022-12-27T12:53:30.145Z,6.00
2022-12-27T12:56:09.802Z,6.10
2022-12-27T12:58:52.646Z,6.10
2022-12-27T13:01:51.097Z,6.10
2022-12-27T13:05:02.271Z,6.10
2022-12-27T13:07:44.060Z,6.10
2022-12-27T13:10:31.873Z,6.20
2022-12-27T13:13:23.290Z,6.30
2022-12-27T13:16:01.813Z,6.30
2022-12-27T13:18:51.415Z,6.10
2022-12-27T13:21:49.125Z,6.10
2022-12-27T13:24:45.807Z,6.00
2022-12-27T13:27:38.073Z,6.00
2022-12-27T13:30:16.726Z,5.90
2022-12-27T13:33:07.513Z,5.90
2022-12-27T13:35:55.997Z,6.00
2022-12-27T13:38:41.593Z,6.00
2022-12-27T13:41:30.186Z,6.00
2022-12-27T13:44:36.601Z,5.90
2022-12-27T13:47:10.717Z,6.00
2022-12-27T13:49:49.942Z,6.00
2022-12-27T13:52:46.751Z,6.10
2022-12-27T13:55:42.922Z,6.10
2022-12-27T13:58:25.150Z,6.20
2022-12-27T14:00:56.830Z,6.30
2022-12-27T14:03:52.296Z,6.30
2022-12-27T14:06:29.962Z,6.30
2022-12-27T14:09:18.190Z,6.30
2022-12-27T14:11:56.589Z,6.20
2022-12-27T14:14:26.239Z,6.30
2022-12-27T14:17:30.560Z,6.20
2022-12-27T14:20:32.436Z,6.20
2022-12-27T14:23:17.932Z,6.10
2022-12-27T14:26:15.524Z,6.10
2022-12-27T14:29:19.533Z,6.10
2022-12-27T14:32:02.643Z,6.10
2022-12-27T14:34:43.650Z,6.00
2022-12-27T14:37:28.905Z,5.90
2022-12-27T14:40:34.421Z,5.90
2022-12-27T14:43:39.375Z,5.90
2022-12-27T14:46:44.095Z,5.90
2022-12-27T14:49:33.939Z,5.90
2022-12-27T14:52:15.583Z,5.90
2022-12-27T14:55:19.985Z,5.90
2022-12-27T14:58:10.117Z,5.90
2022-12-27T15:01:11.033Z,5.90
2022-12-27T15:03:58.511Z,5.90
2022-12-27T15:07:03.477Z,5.80
2022-12-27T15:09:54.866Z,5.80
2022-12-27T15:12:24.423Z,5.80
2022-12-27T15:14:51.221Z,5.70
2022-12-27T15:17:49.905Z,5.70
2022-12-27T15:20:35.653Z,5.80
2022-12-27T15:23:17.507Z,5.80
2022-12-27T15:25:54.904Z,5.80
2022-12-27T15:28:50.155Z,5.70
2022-12-27T15:31:35.799Z,5.80
2022-12-27T15:34:11.821Z,5.80
2022-12-27T15:36:47.421Z,5.80
2022-12-27T15:39:32.830Z,5.80
2022-12-27T15:42:46.461Z,5.80
2022-12-27T15:45:42.828Z,5.70
2022-12-27T15:48:34.092Z,5.70
2022-12-27T15:51:11.437Z,5.60
2022-12-27T15:53:55.889Z,5.70
2022-12-27T15:56:30.592Z,5.50
2022-12-27T15:59:29.477Z,5.50
2022-12-27T16:02:18.091Z,5.40
2022-12-27T16:05:02.045Z,5.30
2022-12-27T16:07:51.609Z,5.20
2022-12-27T16:10:30.701Z,5.10
2022-12-27T16:13:09.830Z,5.10
2022-12-27T16:15:50.958Z,5.00
2022-12-27T16:18:23.868Z,4.90
2022-12-27T16:21:04.573Z,4.90
2022-12-27T16:23:34.246Z,5.00
2022-12-27T16:26:24.499Z,4.90
2022-12-27T16:28:57.619Z,4.90
2022-12-27T16:31:28.332Z,4.90
2022-12-27T16:33:57.273Z,4.90
2022-12-27T16:36:28.787Z,5.00
2022-12-27T16:38:55.715Z,5.10
2022-12-27T16:41:25.546Z,5.10
2022-12-27T16:44:11.958Z,5.10
2022-12-27T16:46:45.537Z,5.20
2022-12-27T16:49:23.795Z,5.30
2022-12-27T16:51:59.196Z,5.30
2022-12-27T16:54:49.766Z,5.20
2022-12-27T16:57:25.625Z,5.20
2022-12-27T17:00:02.219Z,5.20
2022-12-27T17:02:41.931Z,5.20
2022-12-27T17:05:15.293Z,5.30
2022-12-27T17:07:55.215Z,5.30
2022-12-27T17:10:27.964Z,5.20
2022-12-27T17:13:10.717Z,5.30
2022-12-27T17:16:07.927Z,5.30
2022-12-27T17:18:43.677Z,5.30
2022-12-27T17:21:24.573Z,5.40
2022-12-27T17:23:57.271Z,5.40
2022-12-27T17:26:24.056Z,5.40
2022-12-27T17:29:29.462Z,5.50
2022-12-27T17:32:10.895Z,5.50
2022-12-27T17:34:47.316Z,5.60
2022-12-27T17:37:29.214Z,5.60
2022-12-27T17:40:17.366Z,5.70
2022-12-27T17:43:38.120Z,5.70
2022-12-27T17:46:23.743Z,5.80
2022-12-27T17:48:54.902Z,5.80
2022-12-27T17:51:27.400Z,5.80
2022-12-27T17:54:14.643Z,5.80
2022-12-27T17:57:15.332Z,5.80
2022-12-27T17:59:45.342Z,5.80
2022-12-27T18:02:23.819Z,5.90
2022-12-27T18:04:54.100Z,5.90
2022-12-27T18:07:27.397Z,5.90
2022-12-27T18:09:59.924Z,5.90
2022-12-27T18:12:28.247Z,6.00
2022-12-27T18:15:02.809Z,6.00
2022-12-27T18:17:51.835Z,6.10
2022-12-27T18:20:30.641Z,6.10
2022-12-27T18:23:03.255Z,6.20
2022-12-27T18:25:43.573Z,6.20
2022-12-27T18:28:33.728Z,6.30
2022-12-27T18:31:15.808Z,6.30
2022-12-27T18:33:46.139Z,6.30
2022-12-27T18:36:22.787Z,6.30
2022-12-27T18:39:00.198Z,6.40
2022-12-27T18:41:34.064Z,6.40
2022-12-27T18:44:01.936Z,6.50
2022-12-27T18:46:36.923Z,6.40
2022-12-27T18:49:04.376Z,6.50
2022-12-27T18:51:35.118Z,6.50
2022-12-27T18:54:02.512Z,6.50
2022-12-27T18:56:32.826Z,6.50
2022-12-27T18:59:22.730Z,6.50
2022-12-27T19:01:49.807Z,6.50
2022-12-27T19:04:19.928Z,6.50
2022-12-27T19:07:05.315Z,6.50
2022-12-27T19:09:40.643Z,6.50
2022-12-27T19:12:30.710Z,6.50
2022-12-27T19:14:57.760Z,6.50
2022-12-27T19:17:30.907Z,6.50
2022-12-27T19:20:01.974Z,6.50
2022-12-27T19:22:43.769Z,6.50
2022-12-27T19:25:24.405Z,6.50
2022-12-27T19:28:09.910Z,6.50
2022-12-27T19:30:37.048Z,6.50
2022-12-27T19:33:10.387Z,6.50
2022-12-27T19:35:37.355Z,6.50
2022-12-27T19:38:04.351Z,6.50
2022-12-27T19:40:31.596Z,6.50
2022-12-27T19:42:58.830Z,6.50
2022-12-27T19:45:26.232Z,6.50
2022-12-27T19:47:54.914Z,6.50
2022-12-27T19:50:21.874Z,6.50
2022-12-27T19:52:50.745Z,6.50
2022-12-27T19:55:24.514Z,6.40
2022-12-27T19:57:51.809Z,6.40
2022-12-27T20:00:19.314Z,6.40
2022-12-27T20:02:46.508Z,6.40
2022-12-27T20:05:13.721Z,6.40
2022-12-27T20:07:40.894Z,6.40
2022-12-27T20:10:11.151Z,6.40
2022-12-27T20:12:38.045Z,6.30
2022-12-27T20:15:05.792Z,6.30
2022-12-27T20:17:33.418Z,6.30
2022-12-27T20:20:00.316Z,6.30
2022-12-27T20:22:27.243Z,6.30
2022-12-27T20:24:54.118Z,6.20
2022-12-27T20:27:23.918Z,6.20
2022-12-27T20:29:51.272Z,6.20
2022-12-27T20:32:19.037Z,6.10
2022-12-27T20:34:46.251Z,6.00
2022-12-27T20:37:13.354Z,5.90
2022-12-27T20:39:40.326Z,5.90
2022-12-27T20:42:07.217Z,5.80
2022-12-27T20:44:34.286Z,5.70
2022-12-27T20:47:01.620Z,5.70
2022-12-27T20:49:28.631Z,5.70
2022-12-27T20:51:55.470Z,5.70
2022-12-27T20:54:22.435Z,5.60
2022-12-27T20:56:49.356Z,5.50
2022-12-27T20:59:16.257Z,5.50
2022-12-27T21:01:43.258Z,5.50
2022-12-27T21:04:11.042Z,5.40
2022-12-27T21:06:38.119Z,5.40
2022-12-27T21:09:05.577Z,5.30
2022-12-27T21:11:32.811Z,5.30
2022-12-27T21:14:01.631Z,5.30
2022-12-27T21:16:30.314Z,5.40
2022-12-27T21:18:57.846Z,5.40
2022-12-27T21:21:28.634Z,5.40
2022-12-27T21:23:57.792Z,5.30
2022-12-27T21:26:35.441Z,5.30
2022-12-27T21:29:04.249Z,5.30
2022-12-27T21:31:32.042Z,5.30
2022-12-27T21:33:59.676Z,5.20
2022-12-27T21:36:28.710Z,5.20
2022-12-27T21:38:56.221Z,5.10
2022-12-27T21:41:33.076Z,5.10
2022-12-27T21:44:00.133Z,5.10
2022-12-27T21:46:33.645Z,5.10
2022-12-27T21:49:02.767Z,5.10
2022-12-27T21:51:30.911Z,5.10
2022-12-27T21:53:57.879Z,5.00
2022-12-27T21:56:25.496Z,5.00
2022-12-27T21:58:55.322Z,5.00
2022-12-27T22:01:24.451Z,5.00
2022-12-27T22:03:53.151Z,5.00
2022-12-27T22:06:25.083Z,4.90
2022-12-27T22:08:54.753Z,4.90
2022-12-27T22:11:23.345Z,5.00
2022-12-27T22:13:50.780Z,4.90
2022-12-27T22:16:24.519Z,4.90
2022-12-27T22:18:52.226Z,4.90
2022-12-27T22:21:31.171Z,4.90
2022-12-27T22:24:00.082Z,4.90
2022-12-27T22:26:29.935Z,4.90
2022-12-27T22:28:57.319Z,4.90
2022-12-27T22:31:27.480Z,5.00
2022-12-27T22:33:54.289Z,5.00
2022-12-27T22:36:23.739Z,5.00
2022-12-27T22:38:53.597Z,5.00
2022-12-27T22:41:25.945Z,5.00
2022-12-27T22:43:55.098Z,5.10
2022-12-27T22:46:22.069Z,5.00
2022-12-27T22:48:53.585Z,5.00
2022-12-27T22:51:23.779Z,5.00
2022-12-27T22:53:50.753Z,5.00
2022-12-27T22:56:29.564Z,5.00
2022-12-27T22:58:56.627Z,4.90
2022-12-27T23:01:27.885Z,5.00
2022-12-27T23:03:59.381Z,5.00
2022-12-27T23:06:27.462Z,5.00
2022-12-27T23:08:55.019Z,5.00
2022-12-27T23:11:25.566Z,5.00
2022-12-27T23:13:57.827Z,5.00
2022-12-27T23:16:25.897Z,5.10
2022-12-27T23:18:53.266Z,5.00
2022-12-27T23:21:24.201Z,5.00
2022-12-27T23:23:52.597Z,5.00
2022-12-27T23:26:22.790Z,5.10
2022-12-27T23:28:51.578Z,5.00
2022-12-27T23:31:20.747Z,5.00
2022-12-27T23:33:47.706Z,5.10
2022-12-27T23:36:15.266Z,5.10
2022-12-27T23:38:43.220Z,5.10
2022-12-27T23:41:15.261Z,5.10
2022-12-27T23:43:52.116Z,5.10
2022-12-27T23:46:29.609Z,5.00
2022-12-27T23:48:58.236Z,5.10
2022-12-27T23:51:25.798Z,5.00
2022-12-27T23:53:53.018Z,5.10
2022-12-27T23:56:22.691Z,5.00
2022-12-27T23:58:51.177Z,5.10
